Time;durP1;ratioP1;P1;durP2;ratioP2;P2;SDS_P1;SDS_P2;PMS_P1;PMS_P2;Temp;Humidity;BMP_temperature;BMP_pressure;BME280_temperature;BME280_humidity;BME280_pressure;Samples;Min_cycle;Max_cycle;Signal;HPM_P1;HPM_P2
2021/10/03 00:04:43;;;;;;;1.40;1.33;;;23.60;99.90;;;;;;20832420;28;20233;-74
2021/10/03 00:14:49;;;;;;;3.70;1.73;;;23.40;99.90;;;;;;20814610;28;20674;-74
2021/10/03 00:24:53;;;;;;;2.30;0.57;;;23.40;99.90;;;;;;20811143;28;20237;-74
2021/10/03 00:34:58;;;;;;;0.73;0.43;;;23.40;99.90;;;;;;20749062;28;20260;-75
2021/10/03 00:45:02;;;;;;;0.30;0.30;;;23.50;99.90;;;;;;20746371;28;20719;-77
2021/10/03 00:55:07;;;;;;;1.63;0.73;;;23.50;99.90;;;;;;20747569;28;20198;-77
2021/10/03 01:05:12;;;;;;;1.85;1.75;;;23.40;99.90;;;;;;20745887;28;20273;-78
2021/10/03 01:15:17;;;;;;;0.85;0.60;;;23.40;99.90;;;;;;20728546;28;20297;-74
2021/10/03 01:25:24;;;;;;;0.80;0.80;;;23.40;99.90;;;;;;20768356;28;20229;-76
2021/10/03 01:35:27;;;;;;;1.27;0.80;;;23.40;99.90;;;;;;20826539;28;20278;-75
2021/10/03 01:45:33;;;;;;;0.98;0.75;;;23.40;99.90;;;;;;20808122;28;20691;-75
2021/10/03 01:55:37;;;;;;;0.32;0.32;;;23.30;99.90;;;;;;20824785;28;20199;-77
2021/10/03 02:05:44;;;;;;;0.20;0.10;;;23.30;99.90;;;;;;20806268;28;20760;-78
2021/10/03 02:15:48;;;;;;;0.90;0.88;;;23.40;99.90;;;;;;20821822;28;20202;-76
2021/10/03 02:25:54;;;;;;;0.25;0.25;;;23.50;99.90;;;;;;20822347;28;20576;-75
2021/10/03 02:35:58;;;;;;;1.40;0.43;;;23.50;99.90;;;;;;20820721;28;20222;-73
2021/10/03 02:46:04;;;;;;;0.60;0.30;;;23.50;99.90;;;;;;20820027;28;20634;-74
2021/10/03 02:56:08;;;;;;;1.48;1.10;;;23.50;99.90;;;;;;20819621;28;20281;-77
2021/10/03 03:06:14;;;;;;;1.73;0.85;;;23.50;99.90;;;;;;20820685;28;20234;-85
2021/10/03 03:16:18;;;;;;;0.75;0.75;;;23.40;99.90;;;;;;20774877;28;20213;-76
2021/10/03 03:26:23;;;;;;;0.30;0.30;;;23.30;99.90;;;;;;20786829;28;20230;-77
2021/10/03 03:36:27;;;;;;;8.35;0.73;;;23.20;99.90;;;;;;20718479;28;20593;-77
2021/10/03 03:46:33;;;;;;;0.45;0.45;;;23.20;99.90;;;;;;20735050;28;20238;-76
2021/10/03 03:56:37;;;;;;;0.47;0.45;;;23.00;99.90;;;;;;20748112;28;20680;-75
2021/10/03 04:06:42;;;;;;;1.42;0.60;;;22.90;99.90;;;;;;20742388;28;20238;-75
2021/10/03 04:16:45;;;;;;;0.85;0.57;;;22.90;99.90;;;;;;20766217;28;20212;-75
2021/10/03 04:26:51;;;;;;;0.77;0.40;;;22.80;99.90;;;;;;20769000;28;20322;-75
2021/10/03 04:36:54;;;;;;;0.55;0.32;;;22.70;99.90;;;;;;20713330;28;20209;-74
2021/10/03 04:46:59;;;;;;;0.70;0.70;;;22.80;99.90;;;;;;20729178;28;20325;-75
2021/10/03 04:57:03;;;;;;;0.40;0.40;;;23.10;99.90;;;;;;20746157;28;20194;-75
2021/10/03 05:07:08;;;;;;;0.40;0.22;;;23.10;99.90;;;;;;20744486;28;20235;-75
2021/10/03 05:17:12;;;;;;;1.75;1.42;;;23.20;99.90;;;;;;20726376;28;20528;-75
2021/10/03 05:27:17;;;;;;;1.35;0.50;;;23.40;99.90;;;;;;20781847;28;20230;-74
2021/10/03 05:37:20;;;;;;;0.40;0.40;;;23.50;99.90;;;;;;20824876;28;20710;-76
2021/10/03 05:47:25;;;;;;;0.50;0.43;;;23.50;99.90;;;;;;20823906;28;20230;-76
2021/10/03 05:57:29;;;;;;;1.13;1.00;;;23.50;99.90;;;;;;20823363;28;20297;-75
2021/10/03 06:07:34;;;;;;;0.60;0.60;;;23.50;99.90;;;;;;20822726;28;20233;-74
2021/10/03 06:17:37;;;;;;;0.68;0.63;;;23.50;99.90;;;;;;20822083;28;20290;-74
2021/10/03 06:27:43;;;;;;;0.90;0.52;;;23.50;99.90;;;;;;20761317;28;20752;-76
2021/10/03 06:37:50;;;;;;;1.48;0.95;;;23.60;99.90;;;;;;20720529;28;20249;-74
2021/10/03 06:47:55;;;;;;;1.50;1.40;;;23.60;99.90;;;;;;20737683;28;20310;-75
2021/10/03 06:58:00;;;;;;;0.25;0.25;;;23.60;99.90;;;;;;20736903;28;20211;-76
2021/10/03 07:08:06;;;;;;;1.30;0.47;;;23.70;99.90;;;;;;20735323;28;20730;-74
2021/10/03 07:18:11;;;;;;;1.17;0.77;;;23.80;99.90;;;;;;20774933;28;20194;-75
2021/10/03 07:28:16;;;;;;;0.20;0.13;;;23.90;99.90;;;;;;20769412;28;20230;-77
2021/10/03 07:38:20;;;;;;;1.05;0.60;;;24.00;99.90;;;;;;20734484;28;20195;-76
2021/10/03 07:48:25;;;;;;;1.30;0.95;;;23.90;99.90;;;;;;20760536;28;20281;-80
2021/10/03 07:58:31;;;;;;;1.17;0.65;;;24.00;99.90;;;;;;20778337;28;20237;-79
2021/10/03 08:08:36;;;;;;;0.90;0.70;;;24.00;99.90;;;;;;20714692;28;20314;-75
2021/10/03 08:18:40;;;;;;;0.30;0.30;;;24.20;99.90;;;;;;20757171;28;20199;-75
2021/10/03 08:28:46;;;;;;;0.50;0.50;;;24.50;99.90;;;;;;20783055;28;20592;-75
2021/10/03 08:38:52;;;;;;;1.90;1.27;;;24.60;99.90;;;;;;20824099;28;20437;-75
2021/10/03 08:49:01;;;;;;;1.73;1.23;;;24.30;99.90;;;;;;20825304;28;20216;-77
2021/10/03 08:59:05;;;;;;;0.57;0.45;;;23.80;99.90;;;;;;20805939;28;20222;-74
2021/10/03 09:09:10;;;;;;;0.85;0.65;;;23.40;99.90;;;;;;20825815;28;20233;-79
2021/10/03 09:19:14;;;;;;;1.38;1.13;;;23.50;99.90;;;;;;20820030;28;20574;-78
2021/10/03 09:29:24;;;;;;;0.45;0.30;;;23.90;99.90;;;;;;20780536;28;20191;-77
2021/10/03 09:39:41;;;;;;;7.00;1.63;;;24.40;99.90;;;;;;20779602;28;20574;-75
2021/10/03 09:49:46;;;;;;;1.35;0.85;;;24.40;99.90;;;;;;20781087;28;20546;-81
2021/10/03 09:59:51;;;;;;;0.75;0.68;;;25.00;99.90;;;;;;20778071;28;20239;-75
2021/10/03 10:09:56;;;;;;;2.83;1.48;;;24.80;99.90;;;;;;20771184;28;20191;-77
2021/10/03 10:20:00;;;;;;;0.40;0.40;;;25.00;99.90;;;;;;20774628;28;20594;-76
2021/10/03 10:30:12;;;;;;;1.85;1.33;;;24.90;99.90;;;;;;20762619;28;20584;-76
2021/10/03 10:40:28;;;;;;;2.70;1.23;;;25.60;99.90;;;;;;20766972;28;20233;-76
2021/10/03 10:50:33;;;;;;;0.68;0.68;;;26.00;99.90;;;;;;20774079;28;20711;-78
2021/10/03 11:00:56;;;;;;;2.08;1.27;;;26.60;99.90;;;;;;20773322;28;20234;-78
2021/10/03 11:11:19;;;;;;;1.05;0.70;;;25.80;99.90;;;;;;20774045;28;20216;-77
2021/10/03 11:21:24;;;;;;;1.88;1.25;;;27.70;99.90;;;;;;20773790;28;20224;-78
2021/10/03 11:31:44;;;;;;;6.05;2.42;;;27.30;99.90;;;;;;20774528;28;20274;-78
2021/10/03 11:41:49;;;;;;;1.50;1.33;;;27.00;99.90;;;;;;20740953;28;20277;-75
2021/10/03 11:51:54;;;;;;;0.70;0.70;;;27.60;99.90;;;;;;20733423;28;20201;-84
2021/10/03 12:01:58;;;;;;;1.88;1.77;;;27.80;99.90;;;;;;20730466;28;20696;-79
2021/10/03 12:12:04;;;;;;;1.48;0.73;;;27.80;99.90;;;;;;20729111;28;20195;-78
2021/10/03 12:22:08;;;;;;;1.05;0.85;;;26.90;99.90;;;;;;20729714;28;20313;-77
2021/10/03 12:32:15;;;;;;;1.05;1.00;;;27.10;99.90;;;;;;20810718;28;20256;-78
2021/10/03 12:42:21;;;;;;;2.30;1.00;;;26.20;99.90;;;;;;20813886;28;20304;-76
2021/10/03 12:52:26;;;;;;;0.60;0.60;;;27.20;99.90;;;;;;20813094;28;20190;-76
2021/10/03 13:02:29;;;;;;;1.02;1.00;;;26.30;99.90;;;;;;20802394;28;20233;-77
2021/10/03 13:12:42;;;;;;;5.38;2.60;;;26.40;99.90;;;;;;20826587;28;20226;-78
2021/10/03 13:22:46;;;;;;;2.08;1.33;;;26.60;99.90;;;;;;20823675;28;20578;-75
2021/10/03 13:32:51;;;;;;;1.15;1.10;;;27.50;99.90;;;;;;20741514;28;20199;-77
2021/10/03 13:42:55;;;;;;;3.10;1.48;;;27.10;99.90;;;;;;20740020;28;20648;-82
2021/10/03 13:53:00;;;;;;;1.30;1.20;;;28.00;99.90;;;;;;20741081;28;20532;-76
2021/10/03 14:03:04;;;;;;;7.10;0.90;;;30.40;99.90;;;;;;20720530;28;20893;-75
2021/10/03 14:13:09;;;;;;;0.73;0.73;;;31.30;99.90;;;;;;20738520;28;20191;-78
2021/10/03 14:23:14;;;;;;;1.08;0.98;;;30.20;99.90;;;;;;20741889;28;20232;-77
2021/10/03 14:33:19;;;;;;;1.77;1.00;;;29.80;99.90;;;;;;20799688;28;20615;-79
2021/10/03 14:43:23;;;;;;;3.35;1.95;;;30.10;99.90;;;;;;20869492;28;20233;-80
2021/10/03 14:53:29;;;;;;;2.58;2.30;;;28.20;99.90;;;;;;20897096;28;20197;-77
2021/10/03 15:03:32;;;;;;;2.78;1.45;;;29.20;99.90;;;;;;20897830;28;20229;-76
2021/10/03 15:13:38;;;;;;;3.10;1.98;;;28.50;99.90;;;;;;20897487;28;20217;-87
2021/10/03 15:23:43;;;;;;;4.47;2.83;;;27.70;99.90;;;;;;20889008;28;20228;-76
2021/10/03 15:33:48;;;;;;;2.45;1.95;;;28.80;99.90;;;;;;20795197;28;20204;-78
2021/10/03 15:43:53;;;;;;;1.30;1.20;;;28.00;99.90;;;;;;20794038;28;20556;-77
2021/10/03 15:53:58;;;;;;;2.47;1.63;;;27.50;99.90;;;;;;20793265;28;20285;-79
2021/10/03 16:04:02;;;;;;;4.53;3.28;;;25.80;99.90;;;;;;20815409;28;20242;-76
2021/10/03 16:14:07;;;;;;;4.05;2.35;;;24.50;99.90;;;;;;20810210;28;20273;-76
2021/10/03 16:24:11;;;;;;;3.33;2.22;;;24.20;99.90;;;;;;20807485;28;20240;-77
2021/10/03 16:34:16;;;;;;;5.57;1.77;;;24.20;99.90;;;;;;20737066;28;20213;-77
2021/10/03 16:44:19;;;;;;;2.97;1.77;;;24.30;99.90;;;;;;20726036;28;20791;-77
2021/10/03 16:54:24;;;;;;;1.40;1.30;;;24.30;99.90;;;;;;20789991;28;20217;-76
2021/10/03 17:04:27;;;;;;;1.08;0.95;;;24.20;99.90;;;;;;20767498;28;20264;-71
2021/10/03 17:14:33;;;;;;;2.05;1.63;;;24.20;99.90;;;;;;20787951;28;20534;-87
2021/10/03 17:24:37;;;;;;;3.58;1.17;;;24.30;99.90;;;;;;20760665;28;20977;-76
2021/10/03 17:34:42;;;;;;;2.58;2.10;;;24.20;99.90;;;;;;20790554;28;20198;-77
2021/10/03 17:44:45;;;;;;;0.70;0.65;;;24.20;99.90;;;;;;20820796;28;20226;-78
2021/10/03 17:54:51;;;;;;;4.95;2.20;;;24.20;99.90;;;;;;20765700;28;20282;-76
2021/10/03 18:04:55;;;;;;;1.98;1.80;;;24.30;99.90;;;;;;20736190;28;20237;-81
2021/10/03 18:14:59;;;;;;;9.05;3.22;;;24.20;99.90;;;;;;20736780;28;20226;-76
2021/10/03 18:25:04;;;;;;;4.00;3.03;;;24.00;99.90;;;;;;20758102;28;20232;-78
2021/10/03 18:35:11;;;;;;;3.70;2.58;;;23.90;99.90;;;;;;20818216;28;20575;-82
2021/10/03 18:45:16;;;;;;;1.50;1.33;;;23.70;99.90;;;;;;20811386;28;20218;-78
2021/10/03 18:55:21;;;;;;;2.22;2.13;;;23.30;99.90;;;;;;20756871;28;20198;-78
2021/10/03 19:05:24;;;;;;;2.13;1.35;;;23.10;99.90;;;;;;20795218;28;20266;-76
2021/10/03 19:15:29;;;;;;;2.15;1.77;;;23.00;99.90;;;;;;20732762;28;20199;-76
2021/10/03 19:25:33;;;;;;;3.80;2.05;;;22.50;99.90;;;;;;20756202;28;20674;-76
2021/10/03 19:35:38;;;;;;;5.30;3.83;;;22.50;99.90;;;;;;20814266;28;20637;-76
2021/10/03 19:45:42;;;;;;;4.87;3.07;;;22.30;99.90;;;;;;20811817;28;20709;-80
2021/10/03 19:55:48;;;;;;;3.45;2.42;;;22.30;99.90;;;;;;20812704;28;20209;-76
2021/10/03 20:05:51;;;;;;;2.63;2.17;;;22.20;99.90;;;;;;20756913;28;20235;-76
2021/10/03 20:15:56;;;;;;;3.50;2.85;;;22.20;99.90;;;;;;20749143;28;20202;-76
2021/10/03 20:26:00;;;;;;;3.95;2.33;;;22.30;99.90;;;;;;20828140;28;20285;-77
2021/10/03 20:36:05;;;;;;;6.10;2.22;;;22.30;99.90;;;;;;20809010;28;20190;-78
2021/10/03 20:46:08;;;;;;;3.88;2.30;;;22.50;99.90;;;;;;20824454;28;20226;-78
2021/10/03 20:56:13;;;;;;;2.72;1.08;;;22.60;99.90;;;;;;20774916;28;20214;-76
2021/10/03 21:06:17;;;;;;;2.60;2.35;;;22.50;99.90;;;;;;20771903;28;20222;-76
2021/10/03 21:16:22;;;;;;;2.75;2.55;;;22.30;99.90;;;;;;20780045;28;20190;-78
2021/10/03 21:26:26;;;;;;;3.33;1.73;;;22.30;99.90;;;;;;20822652;28;20287;-76
2021/10/03 21:36:31;;;;;;;3.38;2.25;;;22.20;99.90;;;;;;20823609;28;20198;-76
2021/10/03 21:46:35;;;;;;;0.77;0.55;;;22.20;99.90;;;;;;20822517;28;20553;-77
2021/10/03 21:56:42;;;;;;;1.53;0.80;;;22.20;99.90;;;;;;20822878;28;20280;-76
2021/10/03 22:06:45;;;;;;;0.63;0.63;;;21.90;99.90;;;;;;20820983;28;20324;-75
2021/10/03 22:16:51;;;;;;;1.97;1.53;;;21.90;99.90;;;;;;20820110;28;20210;-77
2021/10/03 22:26:54;;;;;;;0.40;0.37;;;21.70;99.90;;;;;;20820214;28;20570;-89
2021/10/03 22:36:59;;;;;;;0.20;0.10;;;20.80;99.90;;;;;;20820214;28;20193;-80
2021/10/03 22:47:03;;;;;;;2.20;0.80;;;19.20;99.90;;;;;;20818641;28;20217;-80
2021/10/03 22:57:08;;;;;;;0.40;0.20;;;17.80;99.90;;;;;;20818056;28;20198;-82
2021/10/03 23:07:12;;;;;;;0.43;0.43;;;17.30;99.90;;;;;;20818867;28;20237;-75
2021/10/03 23:17:17;;;;;;;0.50;0.50;;;17.10;99.90;;;;;;20816598;28;20198;-77
2021/10/03 23:27:21;;;;;;;0.20;0.13;;;16.90;99.90;;;;;;20758835;28;20232;-77
2021/10/03 23:37:26;;;;;;;0.20;0.00;;;17.00;99.90;;;;;;20735826;28;20289;-79
2021/10/03 23:47:30;;;;;;;0.20;0.20;;;16.90;99.90;;;;;;20736935;28;20713;-77
2021/10/03 23:57:35;;;;;;;0.30;0.30;;;17.00;99.90;;;;;;20736844;28;20199;-80
